sensor_id;sensor_type;location;lat;lon;timestamp;pressure;altitude;pressure_sealevel;temperature;humidity
8894;BME280;4483;48.622;9.230;2023-08-01T00:01:49;96903.41;;;18.12;100.00
8894;BME280;4483;48.622;9.230;2023-08-01T00:04:16;96913.16;;;18.10;100.00
8894;BME280;4483;48.622;9.230;2023-08-01T00:06:43;96906.28;;;18.09;100.00
8894;BME280;4483;48.622;9.230;2023-08-01T00:09:09;96904.63;;;18.08;100.00
8894;BME280;4483;48.622;9.230;2023-08-01T00:11:36;96894.06;;;18.09;100.00
8894;BME280;4483;48.622;9.230;2023-08-01T00:14:04;96888.84;;;18.09;100.00
8894;BME280;4483;48.622;9.230;2023-08-01T00:16:30;96878.56;;;18.08;100.00
8894;BME280;4483;48.622;9.230;2023-08-01T00:18:57;96870.19;;;18.04;100.00
8894;BME280;4483;48.622;9.230;2023-08-01T00:21:24;96863.44;;;18.02;100.00
8894;BME280;4483;48.622;9.230;2023-08-01T00:23:50;96860.16;;;18.00;100.00
8894;BME280;4483;48.622;9.230;2023-08-01T00:26:17;96862.06;;;17.98;100.00
8894;BME280;4483;48.622;9.230;2023-08-01T00:28:44;96856.97;;;17.96;100.00
8894;BME280;4483;48.622;9.230;2023-08-01T00:31:12;96841.47;;;17.85;100.00
8894;BME280;4483;48.622;9.230;2023-08-01T00:33:38;96859.00;;;17.93;100.00
8894;BME280;4483;48.622;9.230;2023-08-01T00:36:05;96854.91;;;17.90;100.00
8894;BME280;4483;48.622;9.230;2023-08-01T00:38:34;96848.16;;;17.88;100.00
8894;BME280;4483;48.622;9.230;2023-08-01T00:41:01;96845.13;;;17.83;100.00
8894;BME280;4483;48.622;9.230;2023-08-01T00:43:27;96830.72;;;17.79;100.00
8894;BME280;4483;48.622;9.230;2023-08-01T00:45:55;96826.47;;;17.78;100.00
8894;BME280;4483;48.622;9.230;2023-08-01T00:48:27;96828.38;;;17.76;100.00
8894;BME280;4483;48.622;9.230;2023-08-01T00:50:53;96822.47;;;17.74;100.00
8894;BME280;4483;48.622;9.230;2023-08-01T00:53:21;96827.81;;;17.72;100.00
8894;BME280;4483;48.622;9.230;2023-08-01T00:55:48;96821.06;;;17.70;100.00
8894;BME280;4483;48.622;9.230;2023-08-01T00:58:15;96818.47;;;17.70;100.00
8894;BME280;4483;48.622;9.230;2023-08-01T01:00:42;96828.06;;;17.69;100.00
8894;BME280;4483;48.622;9.230;2023-08-01T01:03:08;96827.25;;;17.69;100.00
8894;BME280;4483;48.622;9.230;2023-08-01T01:05:39;96820.38;;;17.68;100.00
8894;BME280;4483;48.622;9.230;2023-08-01T01:08:09;96811.72;;;17.67;100.00
8894;BME280;4483;48.622;9.230;2023-08-01T01:10:36;96801.72;;;17.63;100.00
8894;BME280;4483;48.622;9.230;2023-08-01T01:13:02;96806.66;;;17.66;100.00
8894;BME280;4483;48.622;9.230;2023-08-01T01:15:29;96802.41;;;17.65;100.00
8894;BME280;4483;48.622;9.230;2023-08-01T01:17:55;96803.63;;;17.61;100.00
8894;BME280;4483;48.622;9.230;2023-08-01T01:20:24;96798.41;;;17.61;100.00
8894;BME280;4483;48.622;9.230;2023-08-01T01:22:54;96795.94;;;17.59;100.00
8894;BME280;4483;48.622;9.230;2023-08-01T01:25:21;96795.38;;;17.56;100.00
8894;BME280;4483;48.622;9.230;2023-08-01T01:27:49;96789.63;;;17.52;100.00
8894;BME280;4483;48.622;9.230;2023-08-01T01:30:18;96791.38;;;17.52;100.00
8894;BME280;4483;48.622;9.230;2023-08-01T01:32:44;96794.81;;;17.52;100.00
8894;BME280;4483;48.622;9.230;2023-08-01T01:35:11;96796.31;;;17.55;100.00
8894;BME280;4483;48.622;9.230;2023-08-01T01:37:38;96782.22;;;17.57;100.00
8894;BME280;4483;48.622;9.230;2023-08-01T01:40:07;96772.66;;;17.58;100.00
8894;BME280;4483;48.622;9.230;2023-08-01T01:42:34;96772.88;;;17.55;100.00
8894;BME280;4483;48.622;9.230;2023-08-01T01:45:01;96777.41;;;17.53;100.00
8894;BME280;4483;48.622;9.230;2023-08-01T01:47:27;96766.03;;;17.54;100.00
8894;BME280;4483;48.622;9.230;2023-08-01T01:49:54;96763.31;;;17.55;100.00
8894;BME280;4483;48.622;9.230;2023-08-01T01:52:21;96743.53;;;17.53;100.00
8894;BME280;4483;48.622;9.230;2023-08-01T01:54:47;96745.22;;;17.54;100.00
8894;BME280;4483;48.622;9.230;2023-08-01T01:57:15;96736.56;;;17.53;100.00
8894;BME280;4483;48.622;9.230;2023-08-01T01:59:42;96731.50;;;17.52;100.00
8894;BME280;4483;48.622;9.230;2023-08-01T02:02:09;96733.13;;;17.53;100.00
8894;BME280;4483;48.622;9.230;2023-08-01T02:04:35;96723.53;;;17.53;100.00
8894;BME280;4483;48.622;9.230;2023-08-01T02:07:02;96723.53;;;17.53;100.00
8894;BME280;4483;48.622;9.230;2023-08-01T02:09:29;96724.38;;;17.54;100.00
8894;BME280;4483;48.622;9.230;2023-08-01T02:11:56;96723.53;;;17.53;100.00
8894;BME280;4483;48.622;9.230;2023-08-01T02:14:23;96714.19;;;17.51;100.00
8894;BME280;4483;48.622;9.230;2023-08-01T02:16:50;96713.97;;;17.54;100.00
8894;BME280;4483;48.622;9.230;2023-08-01T02:19:17;96710.53;;;17.53;100.00
8894;BME280;4483;48.622;9.230;2023-08-01T02:21:43;96708.75;;;17.54;100.00
8894;BME280;4483;48.622;9.230;2023-08-01T02:24:10;96715.03;;;17.51;100.00
8894;BME280;4483;48.622;9.230;2023-08-01T02:26:37;96708.34;;;17.49;100.00
8894;BME280;4483;48.622;9.230;2023-08-01T02:29:03;96712.81;;;17.47;100.00
8894;BME280;4483;48.622;9.230;2023-08-01T02:31:31;96714.72;;;17.45;100.00
8894;BME280;4483;48.622;9.230;2023-08-01T02:33:58;96726.78;;;17.46;100.00
8894;BME280;4483;48.622;9.230;2023-08-01T02:36:25;96725.13;;;17.45;100.00
8894;BME280;4483;48.622;9.230;2023-08-01T02:38:51;96712.25;;;17.43;100.00
8894;BME280;4483;48.622;9.230;2023-08-01T02:41:18;96709.50;;;17.45;100.00
8894;BME280;4483;48.622;9.230;2023-08-01T02:43:44;96705.38;;;17.42;100.00
8894;BME280;4483;48.622;9.230;2023-08-01T02:46:11;96703.75;;;17.41;100.00
8894;BME280;4483;48.622;9.230;2023-08-01T02:48:39;96710.72;;;17.41;100.00
8894;BME280;4483;48.622;9.230;2023-08-01T02:51:06;96712.34;;;17.42;100.00
8894;BME280;4483;48.622;9.230;2023-08-01T02:53:34;96708.13;;;17.41;100.00
8894;BME280;4483;48.622;9.230;2023-08-01T02:56:01;96714.66;;;17.35;100.00
8894;BME280;4483;48.622;9.230;2023-08-01T02:58:28;96718.22;;;17.34;100.00
8894;BME280;4483;48.622;9.230;2023-08-01T03:00:55;96710.53;;;17.33;100.00
8894;BME280;4483;48.622;9.230;2023-08-01T03:03:21;96713.97;;;17.33;100.00
8894;BME280;4483;48.622;9.230;2023-08-01T03:05:49;96720.94;;;17.33;100.00
8894;BME280;4483;48.622;9.230;2023-08-01T03:08:16;96716.56;;;17.33;100.00
8894;BME280;4483;48.622;9.230;2023-08-01T03:10:43;96714.13;;;17.32;100.00
8894;BME280;4483;48.622;9.230;2023-08-01T03:13:09;96711.66;;;17.30;100.00
8894;BME280;4483;48.622;9.230;2023-08-01T03:15:37;96705.59;;;17.30;100.00
8894;BME280;4483;48.622;9.230;2023-08-01T03:18:03;96708.22;;;17.30;100.00
8894;BME280;4483;48.622;9.230;2023-08-01T03:20:30;96699.44;;;17.31;100.00
8894;BME280;4483;48.622;9.230;2023-08-01T03:22:58;96704.53;;;17.32;100.00
8894;BME280;4483;48.622;9.230;2023-08-01T03:25:25;96693.00;;;17.35;100.00
8894;BME280;4483;48.622;9.230;2023-08-01T03:27:51;96699.31;;;17.32;100.00
8894;BME280;4483;48.622;9.230;2023-08-01T03:30:19;96703.44;;;17.35;100.00
8894;BME280;4483;48.622;9.230;2023-08-01T03:32:46;96703.19;;;17.38;100.00
8894;BME280;4483;48.622;9.230;2023-08-01T03:35:13;96699.59;;;17.39;100.00
8894;BME280;4483;48.622;9.230;2023-08-01T03:37:40;96693.44;;;17.40;100.00
8894;BME280;4483;48.622;9.230;2023-08-01T03:40:08;96688.22;;;17.40;100.00
8894;BME280;4483;48.622;9.230;2023-08-01T03:42:35;96696.34;;;17.46;100.00
8894;BME280;4483;48.622;9.230;2023-08-01T03:45:03;96698.34;;;17.54;100.00
8894;BME280;4483;48.622;9.230;2023-08-01T03:47:30;96681.22;;;17.61;100.00
8894;BME280;4483;48.622;9.230;2023-08-01T03:49:57;96690.13;;;17.68;100.00
8894;BME280;4483;48.622;9.230;2023-08-01T03:52:24;96686.59;;;17.69;100.00
8894;BME280;4483;48.622;9.230;2023-08-01T03:54:53;96698.53;;;17.81;100.00
8894;BME280;4483;48.622;9.230;2023-08-01T03:57:22;96712.13;;;17.84;100.00
8894;BME280;4483;48.622;9.230;2023-08-01T03:59:48;96713.50;;;17.88;100.00
8894;BME280;4483;48.622;9.230;2023-08-01T04:02:15;96712.41;;;17.91;100.00
8894;BME280;4483;48.622;9.230;2023-08-01T04:04:41;96706.25;;;17.92;100.00
8894;BME280;4483;48.622;9.230;2023-08-01T04:07:08;96708.84;;;17.92;100.00
8894;BME280;4483;48.622;9.230;2023-08-01T04:09:35;96700.34;;;17.90;100.00
8894;BME280;4483;48.622;9.230;2023-08-01T04:12:04;96706.53;;;17.89;100.00
8894;BME280;4483;48.622;9.230;2023-08-01T04:14:33;96699.50;;;17.89;100.00
8894;BME280;4483;48.622;9.230;2023-08-01T04:17:00;96707.19;;;17.91;100.00
8894;BME280;4483;48.622;9.230;2023-08-01T04:19:26;96706.66;;;17.97;100.00
8894;BME280;4483;48.622;9.230;2023-08-01T04:21:53;96700.09;;;18.02;100.00
8894;BME280;4483;48.622;9.230;2023-08-01T04:24:19;96692.81;;;18.06;100.00
8894;BME280;4483;48.622;9.230;2023-08-01T04:26:46;96683.78;;;18.20;100.00
8894;BME280;4483;48.622;9.230;2023-08-01T04:29:13;96669.38;;;18.25;100.00
8894;BME280;4483;48.622;9.230;2023-08-01T04:31:42;96664.97;;;18.35;100.00
8894;BME280;4483;48.622;9.230;2023-08-01T04:34:08;96651.28;;;18.43;100.00
8894;BME280;4483;48.622;9.230;2023-08-01T04:36:35;96643.59;;;18.51;100.00
8894;BME280;4483;48.622;9.230;2023-08-01T04:39:01;96639.44;;;18.67;100.00
8894;BME280;4483;48.622;9.230;2023-08-01T04:41:28;96635.69;;;18.79;100.00
8894;BME280;4483;48.622;9.230;2023-08-01T04:43:55;96624.00;;;18.93;100.00
8894;BME280;4483;48.622;9.230;2023-08-01T04:46:21;96606.78;;;19.00;99.90
8894;BME280;4483;48.622;9.230;2023-08-01T04:48:49;96580.91;;;19.06;99.11
8894;BME280;4483;48.622;9.230;2023-08-01T04:51:16;96565.00;;;19.10;98.08
8894;BME280;4483;48.622;9.230;2023-08-01T04:53:42;96559.91;;;19.08;98.41
8894;BME280;4483;48.622;9.230;2023-08-01T04:56:09;96545.47;;;19.14;95.95
8894;BME280;4483;48.622;9.230;2023-08-01T04:58:36;96552.16;;;19.16;95.44
8894;BME280;4483;48.622;9.230;2023-08-01T05:01:02;96523.28;;;19.18;94.63
8894;BME280;4483;48.622;9.230;2023-08-01T05:03:29;96515.94;;;19.31;92.59
8894;BME280;4483;48.622;9.230;2023-08-01T05:05:57;96504.28;;;19.25;93.94
8894;BME280;4483;48.622;9.230;2023-08-01T05:08:23;96502.94;;;19.21;93.50
8894;BME280;4483;48.622;9.230;2023-08-01T05:10:50;96508.47;;;19.18;93.88
8894;BME280;4483;48.622;9.230;2023-08-01T05:13:17;96508.69;;;19.25;93.08
8894;BME280;4483;48.622;9.230;2023-08-01T05:15:44;96518.47;;;19.23;93.54
8894;BME280;4483;48.622;9.230;2023-08-01T05:18:12;96543.59;;;19.24;92.65
8894;BME280;4483;48.622;9.230;2023-08-01T05:20:39;96555.03;;;19.23;93.41
8894;BME280;4483;48.622;9.230;2023-08-01T05:23:07;96530.16;;;19.19;92.99
8894;BME280;4483;48.622;9.230;2023-08-01T05:25:33;96552.16;;;19.16;93.31
8894;BME280;4483;48.622;9.230;2023-08-01T05:28:00;96530.75;;;19.13;93.88
8894;BME280;4483;48.622;9.230;2023-08-01T05:30:27;96538.72;;;19.11;93.64
8894;BME280;4483;48.622;9.230;2023-08-01T05:32:53;96551.31;;;19.16;92.54
8894;BME280;4483;48.622;9.230;2023-08-01T05:35:20;96564.38;;;19.16;93.11
8894;BME280;4483;48.622;9.230;2023-08-01T05:37:47;96557.16;;;19.10;92.89
8894;BME280;4483;48.622;9.230;2023-08-01T05:40:15;96554.78;;;19.16;92.20
8894;BME280;4483;48.622;9.230;2023-08-01T05:42:42;96558.06;;;19.18;92.59
8894;BME280;4483;48.622;9.230;2023-08-01T05:45:09;96555.03;;;19.23;90.91
8894;BME280;4483;48.622;9.230;2023-08-01T05:47:36;96572.63;;;19.21;91.51
8894;BME280;4483;48.622;9.230;2023-08-01T05:50:05;96554.34;;;19.21;91.11
8894;BME280;4483;48.622;9.230;2023-08-01T05:52:33;96558.75;;;19.20;91.70
8894;BME280;4483;48.622;9.230;2023-08-01T05:54:59;96560.53;;;19.20;91.97
8894;BME280;4483;48.622;9.230;2023-08-01T05:57:27;96566.44;;;19.22;92.14
8894;BME280;4483;48.622;9.230;2023-08-01T05:59:54;96555.97;;;19.22;91.96
8894;BME280;4483;48.622;9.230;2023-08-01T06:02:20;96560.63;;;19.28;92.31
8894;BME280;4483;48.622;9.230;2023-08-01T06:04:47;96578.75;;;19.29;90.76
8894;BME280;4483;48.622;9.230;2023-08-01T06:07:14;96576.81;;;19.41;87.28
8894;BME280;4483;48.622;9.230;2023-08-01T06:09:40;96572.31;;;19.51;84.68
8894;BME280;4483;48.622;9.230;2023-08-01T06:12:07;96566.44;;;19.49;85.42
8894;BME280;4483;48.622;9.230;2023-08-01T06:14:35;96576.44;;;19.53;84.12
8894;BME280;4483;48.622;9.230;2023-08-01T06:17:02;96586.38;;;19.50;84.58
8894;BME280;4483;48.622;9.230;2023-08-01T06:19:29;96579.06;;;19.53;83.84
8894;BME280;4483;48.622;9.230;2023-08-01T06:21:55;96577.50;;;19.60;83.14
8894;BME280;4483;48.622;9.230;2023-08-01T06:24:22;96569.34;;;19.63;83.27
8894;BME280;4483;48.622;9.230;2023-08-01T06:26:48;96582.66;;;19.70;82.08
8894;BME280;4483;48.622;9.230;2023-08-01T06:29:15;96577.81;;;19.75;82.41
8894;BME280;4483;48.622;9.230;2023-08-01T06:31:43;96582.34;;;19.73;82.94
8894;BME280;4483;48.622;9.230;2023-08-01T06:34:10;96576.44;;;19.71;83.17
8894;BME280;4483;48.622;9.230;2023-08-01T06:36:36;96577.94;;;19.73;81.75
8894;BME280;4483;48.622;9.230;2023-08-01T06:39:03;96582.59;;;19.79;82.04
8894;BME280;4483;48.622;9.230;2023-08-01T06:41:30;96577.38;;;19.79;81.59
8894;BME280;4483;48.622;9.230;2023-08-01T06:43:57;96577.56;;;19.86;80.43
8894;BME280;4483;48.622;9.230;2023-08-01T06:46:24;96580.34;;;19.84;80.08
8894;BME280;4483;48.622;9.230;2023-08-01T06:48:52;96581.47;;;19.82;80.34
8894;BME280;4483;48.622;9.230;2023-08-01T06:51:19;96589.59;;;19.79;81.54
8894;BME280;4483;48.622;9.230;2023-08-01T06:53:45;96595.19;;;19.84;81.33
8894;BME280;4483;48.622;9.230;2023-08-01T06:56:12;96589.75;;;19.77;81.76
8894;BME280;4483;48.622;9.230;2023-08-01T06:58:38;96605.88;;;19.73;82.24
8894;BME280;4483;48.622;9.230;2023-08-01T07:01:05;96593.69;;;19.64;82.96
8894;BME280;4483;48.622;9.230;2023-08-01T07:03:32;96588.56;;;19.72;82.32
8894;BME280;4483;48.622;9.230;2023-08-01T07:06:00;96588.47;;;19.81;81.47
8894;BME280;4483;48.622;9.230;2023-08-01T07:08:26;96590.28;;;19.81;81.73
8894;BME280;4483;48.622;9.230;2023-08-01T07:10:53;96592.59;;;19.84;81.00
8894;BME280;4483;48.622;9.230;2023-08-01T07:13:19;96593.63;;;19.91;80.20
8894;BME280;4483;48.622;9.230;2023-08-01T07:15:47;96597.28;;;19.98;79.26
8894;BME280;4483;48.622;9.230;2023-08-01T07:18:14;96590.94;;;20.00;79.43
8894;BME280;4483;48.622;9.230;2023-08-01T07:20:41;96605.00;;;19.99;79.65
8894;BME280;4483;48.622;9.230;2023-08-01T07:23:09;96603.34;;;19.98;79.84
8894;BME280;4483;48.622;9.230;2023-08-01T07:25:36;96603.59;;;20.05;79.45
8894;BME280;4483;48.622;9.230;2023-08-01T07:28:02;96599.66;;;20.09;79.45
8894;BME280;4483;48.622;9.230;2023-08-01T07:30:29;96602.00;;;20.12;79.15
8894;BME280;4483;48.622;9.230;2023-08-01T07:32:56;96601.97;;;20.22;78.63
8894;BME280;4483;48.622;9.230;2023-08-01T07:35:22;96613.97;;;20.32;78.40
8894;BME280;4483;48.622;9.230;2023-08-01T07:37:49;96619.63;;;20.45;78.08
8894;BME280;4483;48.622;9.230;2023-08-01T07:40:17;96614.75;;;20.50;77.54
8894;BME280;4483;48.622;9.230;2023-08-01T07:42:43;96638.63;;;20.47;77.70
8894;BME280;4483;48.622;9.230;2023-08-01T07:45:11;96621.25;;;20.46;77.07
8894;BME280;4483;48.622;9.230;2023-08-01T07:47:38;96630.84;;;20.38;77.64
8894;BME280;4483;48.622;9.230;2023-08-01T07:50:05;96608.38;;;20.27;78.65
8894;BME280;4483;48.622;9.230;2023-08-01T07:52:32;96625.78;;;20.19;80.45
8894;BME280;4483;48.622;9.230;2023-08-01T07:54:59;96633.66;;;20.09;82.98
8894;BME280;4483;48.622;9.230;2023-08-01T07:57:26;96625.66;;;19.93;84.70
8894;BME280;4483;48.622;9.230;2023-08-01T07:59:53;96639.31;;;19.69;87.48
8894;BME280;4483;48.622;9.230;2023-08-01T08:02:20;96635.16;;;19.49;90.53
8894;BME280;4483;48.622;9.230;2023-08-01T08:04:46;96632.75;;;19.29;92.43
8894;BME280;4483;48.622;9.230;2023-08-01T08:07:13;96638.75;;;19.12;93.77
8894;BME280;4483;48.622;9.230;2023-08-01T08:09:40;96651.69;;;19.03;96.59
8894;BME280;4483;48.622;9.230;2023-08-01T08:12:07;96652.44;;;18.86;97.14
8894;BME280;4483;48.622;9.230;2023-08-01T08:14:35;96643.53;;;18.70;99.02
8894;BME280;4483;48.622;9.230;2023-08-01T08:17:02;96634.25;;;18.58;100.00
8894;BME280;4483;48.622;9.230;2023-08-01T08:19:29;96636.84;;;18.48;100.00
8894;BME280;4483;48.622;9.230;2023-08-01T08:21:55;96630.81;;;18.38;100.00
8894;BME280;4483;48.622;9.230;2023-08-01T08:24:22;96633.81;;;18.34;100.00
8894;BME280;4483;48.622;9.230;2023-08-01T08:26:49;96614.19;;;18.30;100.00
8894;BME280;4483;48.622;9.230;2023-08-01T08:29:16;96623.13;;;18.27;100.00
8894;BME280;4483;48.622;9.230;2023-08-01T08:31:43;96626.16;;;18.32;100.00
8894;BME280;4483;48.622;9.230;2023-08-01T08:34:10;96624.38;;;18.33;100.00
8894;BME280;4483;48.622;9.230;2023-08-01T08:36:37;96637.94;;;18.36;100.00
8894;BME280;4483;48.622;9.230;2023-08-01T08:39:03;96633.84;;;18.43;100.00
8894;BME280;4483;48.622;9.230;2023-08-01T08:41:33;96648.94;;;18.49;100.00
8894;BME280;4483;48.622;9.230;2023-08-01T08:44:07;96644.41;;;18.51;100.00
8894;BME280;4483;48.622;9.230;2023-08-01T08:46:40;96633.41;;;18.57;100.00
8894;BME280;4483;48.622;9.230;2023-08-01T08:49:09;96652.34;;;18.69;100.00
8894;BME280;4483;48.622;9.230;2023-08-01T08:51:37;96664.94;;;18.83;100.00
8894;BME280;4483;48.622;9.230;2023-08-01T08:54:04;96663.53;;;18.88;100.00
8894;BME280;4483;48.622;9.230;2023-08-01T08:56:33;96655.72;;;18.88;100.00
8894;BME280;4483;48.622;9.230;2023-08-01T08:59:00;96647.75;;;18.90;100.00
8894;BME280;4483;48.622;9.230;2023-08-01T09:01:27;96652.16;;;18.89;100.00
8894;BME280;4483;48.622;9.230;2023-08-01T09:03:56;96649.81;;;18.86;100.00
8894;BME280;4483;48.622;9.230;2023-08-01T09:06:28;96653.41;;;18.76;100.00
8894;BME280;4483;48.622;9.230;2023-08-01T09:09:01;96651.25;;;18.71;100.00
8894;BME280;4483;48.622;9.230;2023-08-01T09:11:38;96646.13;;;18.79;100.00
8894;BME280;4483;48.622;9.230;2023-08-01T09:14:05;96652.31;;;18.88;100.00
8894;BME280;4483;48.622;9.230;2023-08-01T09:16:33;96645.28;;;18.88;100.00
8894;BME280;4483;48.622;9.230;2023-08-01T09:18:59;96641.56;;;18.91;100.00
8894;BME280;4483;48.622;9.230;2023-08-01T09:21:31;96649.38;;;19.00;100.00
8894;BME280;4483;48.622;9.230;2023-08-01T09:24:08;96649.31;;;19.10;100.00
8894;BME280;4483;48.622;9.230;2023-08-01T09:26:35;96652.19;;;19.17;100.00
8894;BME280;4483;48.622;9.230;2023-08-01T09:29:02;96655.44;;;19.38;100.00
8894;BME280;4483;48.622;9.230;2023-08-01T09:31:29;96650.66;;;19.60;100.00
8894;BME280;4483;48.622;9.230;2023-08-01T09:33:56;96651.13;;;19.73;100.00
8894;BME280;4483;48.622;9.230;2023-08-01T09:36:23;96658.81;;;19.75;100.00
8894;BME280;4483;48.622;9.230;2023-08-01T09:38:58;96665.53;;;19.77;100.00
8894;BME280;4483;48.622;9.230;2023-08-01T09:41:25;96676.72;;;19.70;100.00
8894;BME280;4483;48.622;9.230;2023-08-01T09:43:51;96671.25;;;19.63;100.00
8894;BME280;4483;48.622;9.230;2023-08-01T09:46:18;96666.75;;;19.56;100.00
8894;BME280;4483;48.622;9.230;2023-08-01T09:48:45;96666.38;;;19.51;100.00
8894;BME280;4483;48.622;9.230;2023-08-01T09:51:12;96677.53;;;19.43;100.00
8894;BME280;4483;48.622;9.230;2023-08-01T09:53:47;96674.41;;;19.40;100.00
8894;BME280;4483;48.622;9.230;2023-08-01T09:56:18;96673.03;;;19.36;100.00
8894;BME280;4483;48.622;9.230;2023-08-01T09:58:46;96689.25;;;19.30;100.00
8894;BME280;4483;48.622;9.230;2023-08-01T10:01:14;96686.53;;;19.22;100.00
8894;BME280;4483;48.622;9.230;2023-08-01T10:03:44;96682.56;;;19.18;100.00
8894;BME280;4483;48.622;9.230;2023-08-01T10:06:14;96680.41;;;19.03;100.00
8894;BME280;4483;48.622;9.230;2023-08-01T10:08:44;96688.22;;;19.13;100.00
8894;BME280;4483;48.622;9.230;2023-08-01T10:11:12;96685.16;;;19.18;100.00
8894;BME280;4483;48.622;9.230;2023-08-01T10:13:41;96683.84;;;19.14;100.00
8894;BME280;4483;48.622;9.230;2023-08-01T10:16:08;96677.94;;;19.12;100.00
8894;BME280;4483;48.622;9.230;2023-08-01T10:18:35;96684.38;;;19.17;100.00
8894;BME280;4483;48.622;9.230;2023-08-01T10:21:04;96677.06;;;19.21;100.00
8894;BME280;4483;48.622;9.230;2023-08-01T10:23:32;96670.97;;;19.30;100.00
8894;BME280;4483;48.622;9.230;2023-08-01T10:25:59;96669.16;;;19.40;100.00
8894;BME280;4483;48.622;9.230;2023-08-01T10:28:33;96669.16;;;19.40;100.00
8894;BME280;4483;48.622;9.230;2023-08-01T10:31:09;96656.63;;;19.43;100.00
8894;BME280;4483;48.622;9.230;2023-08-01T10:33:36;96670.91;;;19.49;100.00
8894;BME280;4483;48.622;9.230;2023-08-01T10:36:12;96671.31;;;19.54;100.00
8894;BME280;4483;48.622;9.230;2023-08-01T10:38:45;96680.91;;;19.63;100.00
8894;BME280;4483;48.622;9.230;2023-08-01T10:41:19;96686.91;;;19.63;100.00
8894;BME280;4483;48.622;9.230;2023-08-01T10:43:45;96690.47;;;19.72;100.00
8894;BME280;4483;48.622;9.230;2023-08-01T10:46:13;96688.63;;;19.82;100.00
8894;BME280;4483;48.622;9.230;2023-08-01T10:48:48;96677.91;;;20.02;100.00
8894;BME280;4483;48.622;9.230;2023-08-01T10:51:15;96677.81;;;20.22;100.00
8894;BME280;4483;48.622;9.230;2023-08-01T10:53:41;96682.47;;;20.53;100.00
8894;BME280;4483;48.622;9.230;2023-08-01T10:56:08;96670.66;;;20.92;100.00
8894;BME280;4483;48.622;9.230;2023-08-01T10:58:41;96676.56;;;21.46;100.00
8894;BME280;4483;48.622;9.230;2023-08-01T11:01:08;96679.72;;;22.07;100.00
8894;BME280;4483;48.622;9.230;2023-08-01T11:03:37;96680.13;;;22.28;100.00
8894;BME280;4483;48.622;9.230;2023-08-01T11:06:04;96683.59;;;22.61;98.87
8894;BME280;4483;48.622;9.230;2023-08-01T11:08:37;96687.00;;;22.53;96.49
8894;BME280;4483;48.622;9.230;2023-08-01T11:11:05;96692.59;;;22.50;96.40
8894;BME280;4483;48.622;9.230;2023-08-01T11:13:33;96688.34;;;22.41;95.44
8894;BME280;4483;48.622;9.230;2023-08-01T11:16:01;96686.19;;;22.45;94.53
8894;BME280;4483;48.622;9.230;2023-08-01T11:18:29;96683.09;;;22.98;94.70
8894;BME280;4483;48.622;9.230;2023-08-01T11:20:57;96688.31;;;23.30;91.92
8894;BME280;4483;48.622;9.230;2023-08-01T11:23:28;96681.75;;;23.18;87.69
8894;BME280;4483;48.622;9.230;2023-08-01T11:25:55;96696.72;;;22.77;86.11
8894;BME280;4483;48.622;9.230;2023-08-01T11:28:22;96696.53;;;22.54;88.81
8894;BME280;4483;48.622;9.230;2023-08-01T11:30:49;96707.56;;;22.58;90.28
8894;BME280;4483;48.622;9.230;2023-08-01T11:33:17;96707.25;;;22.69;90.19
8894;BME280;4483;48.622;9.230;2023-08-01T11:35:45;96696.88;;;22.67;90.31
8894;BME280;4483;48.622;9.230;2023-08-01T11:38:13;96698.88;;;22.73;90.21
8894;BME280;4483;48.622;9.230;2023-08-01T11:40:40;96703.75;;;23.09;87.64
8894;BME280;4483;48.622;9.230;2023-08-01T11:43:07;96706.38;;;23.33;85.62
8894;BME280;4483;48.622;9.230;2023-08-01T11:45:34;96703.50;;;23.97;78.61
8894;BME280;4483;48.622;9.230;2023-08-01T11:48:01;96705.75;;;24.61;77.12
8894;BME280;4483;48.622;9.230;2023-08-01T11:50:28;96712.13;;;24.67;74.26
8894;BME280;4483;48.622;9.230;2023-08-01T11:52:55;96715.19;;;24.78;72.11
8894;BME280;4483;48.622;9.230;2023-08-01T11:55:25;96724.91;;;25.01;67.74
8894;BME280;4483;48.622;9.230;2023-08-01T11:57:54;96711.28;;;25.12;64.10
8894;BME280;4483;48.622;9.230;2023-08-01T12:00:21;96715.66;;;25.19;60.47
8894;BME280;4483;48.622;9.230;2023-08-01T12:02:48;96728.00;;;25.56;60.53
8894;BME280;4483;48.622;9.230;2023-08-01T12:05:21;96738.34;;;25.86;58.43
8894;BME280;4483;48.622;9.230;2023-08-01T12:07:48;96726.06;;;25.94;57.78
8894;BME280;4483;48.622;9.230;2023-08-01T12:10:15;96726.44;;;25.76;56.96
8894;BME280;4483;48.622;9.230;2023-08-01T12:12:46;96730.44;;;25.72;56.53
8894;BME280;4483;48.622;9.230;2023-08-01T12:15:13;96731.56;;;25.63;56.63
8894;BME280;4483;48.622;9.230;2023-08-01T12:17:40;96737.91;;;25.54;56.78
8894;BME280;4483;48.622;9.230;2023-08-01T12:20:08;96741.91;;;25.50;57.63
8894;BME280;4483;48.622;9.230;2023-08-01T12:22:35;96740.63;;;25.46;57.31
8894;BME280;4483;48.622;9.230;2023-08-01T12:25:01;96733.41;;;25.25;55.00
8894;BME280;4483;48.622;9.230;2023-08-01T12:27:28;96729.56;;;25.28;55.42
8894;BME280;4483;48.622;9.230;2023-08-01T12:29:56;96728.91;;;25.63;54.75
8894;BME280;4483;48.622;9.230;2023-08-01T12:32:23;96719.53;;;26.04;53.35
8894;BME280;4483;48.622;9.230;2023-08-01T12:34:49;96728.31;;;26.26;52.61
8894;BME280;4483;48.622;9.230;2023-08-01T12:37:16;96724.00;;;26.39;51.18
8894;BME280;4483;48.622;9.230;2023-08-01T12:39:42;96732.78;;;26.46;51.19
8894;BME280;4483;48.622;9.230;2023-08-01T12:42:09;96733.66;;;26.32;50.87
8894;BME280;4483;48.622;9.230;2023-08-01T12:44:36;96719.63;;;26.67;50.87
8894;BME280;4483;48.622;9.230;2023-08-01T12:47:04;96714.44;;;27.02;50.40
8894;BME280;4483;48.622;9.230;2023-08-01T12:49:33;96706.97;;;27.33;49.81
8894;BME280;4483;48.622;9.230;2023-08-01T12:51:59;96709.56;;;27.54;48.01
8894;BME280;4483;48.622;9.230;2023-08-01T12:54:26;96712.63;;;27.30;47.87
8894;BME280;4483;48.622;9.230;2023-08-01T12:56:52;96717.44;;;27.20;47.59
8894;BME280;4483;48.622;9.230;2023-08-01T12:59:19;96716.66;;;27.26;47.46
8894;BME280;4483;48.622;9.230;2023-08-01T13:01:46;96715.41;;;27.22;47.80
8894;BME280;4483;48.622;9.230;2023-08-01T13:04:14;96721.38;;;27.03;48.42
8894;BME280;4483;48.622;9.230;2023-08-01T13:06:41;96722.41;;;26.80;48.94
8894;BME280;4483;48.622;9.230;2023-08-01T13:09:08;96722.25;;;26.67;48.13
8894;BME280;4483;48.622;9.230;2023-08-01T13:11:37;96717.94;;;26.81;47.32
8894;BME280;4483;48.622;9.230;2023-08-01T13:14:04;96725.56;;;26.69;47.57
8894;BME280;4483;48.622;9.230;2023-08-01T13:16:30;96717.34;;;26.64;47.18